Time;durP1;ratioP1;P1;durP2;ratioP2;P2;SDS_P1;SDS_P2;PMS_P1;PMS_P2;Temp;Humidity;BMP_temperature;BMP_pressure;BME280_temperature;BME280_humidity;BME280_pressure;Samples;Min_cycle;Max_cycle;Signal;HPM_P1;HPM_P2
2022/03/27 00:00:51;;;;;;;32.33;17.35;;;;;;;4.35;97.18;97432.78;5045250;28;20080;-59
2022/03/27 00:03:19;;;;;;;35.03;17.60;;;;;;;4.61;92.20;97433.97;5042348;28;20063;-59
2022/03/27 00:05:48;;;;;;;38.78;18.15;;;;;;;4.46;100.00;97433.88;5047294;28;20077;-60
2022/03/27 00:08:17;;;;;;;39.00;18.48;;;;;;;4.43;100.00;97436.63;5045463;28;20068;-53
2022/03/27 00:13:31;;;;;;;38.85;18.45;;;;;;;4.65;100.00;97425.06;5046171;28;20077;-58
2022/03/27 00:16:00;;;;;;;39.90;18.00;;;;;;;4.55;100.00;97434.31;5045366;28;20069;-56
2022/03/27 00:18:28;;;;;;;38.17;19.73;;;;;;;4.59;100.00;97426.22;5045759;28;20072;-59
2022/03/27 00:20:56;;;;;;;39.80;19.35;;;;;;;4.42;100.00;97428.91;5046407;28;20569;-59
2022/03/27 00:23:26;;;;;;;39.67;18.65;;;;;;;4.50;100.00;97427.53;5045732;28;20091;-59
2022/03/27 00:25:54;;;;;;;39.40;18.80;;;;;;;4.38;100.00;97425.63;5047067;28;20073;-57
2022/03/27 00:28:32;;;;;;;40.10;18.50;;;;;;;4.35;100.00;97431.00;5046662;28;20037;-57
2022/03/27 00:31:01;;;;;;;42.17;18.70;;;;;;;4.09;100.00;97437.59;5044067;28;20067;-58
2022/03/27 00:33:29;;;;;;;36.05;18.63;;;;;;;4.27;100.00;97435.78;5044612;28;20060;-58
2022/03/27 00:35:57;;;;;;;45.58;18.92;;;;;;;4.36;100.00;97437.06;5046229;28;20081;-58
2022/03/27 00:38:27;;;;;;;48.25;18.20;;;;;;;4.15;100.00;97439.88;5045008;28;20099;-59
2022/03/27 00:40:56;;;;;;;42.03;19.67;;;;;;;3.99;100.00;97439.88;5045560;28;20069;-59
2022/03/27 00:43:25;;;;;;;37.60;18.10;;;;;;;4.26;100.00;97445.38;5044688;28;20495;-56
2022/03/27 00:45:53;;;;;;;44.75;18.38;;;;;;;4.19;100.00;97437.97;5043963;28;20068;-57
2022/03/27 00:48:23;;;;;;;36.30;18.67;;;;;;;4.16;100.00;97440.72;5044996;28;20068;-59
2022/03/27 00:50:52;;;;;;;35.38;18.42;;;;;;;4.03;100.00;97437.94;5045501;28;20468;-57
2022/03/27 00:53:22;;;;;;;33.42;18.10;;;;;;;4.24;100.00;97428.97;5044231;28;20076;-59
2022/03/27 00:55:51;;;;;;;39.05;18.60;;;;;;;4.16;100.00;97433.72;5045759;28;20083;-59
2022/03/27 00:58:20;;;;;;;40.87;18.40;;;;;;;4.21;100.00;97431.72;5047020;28;20073;-58
2022/03/27 01:00:56;;;;;;;38.03;19.27;;;;;;;4.12;100.00;97434.81;5045752;28;20490;-59
2022/03/27 01:03:26;;;;;;;41.30;18.50;;;;;;;4.02;100.00;97429.22;5045763;28;20095;-58
2022/03/27 01:05:57;;;;;;;42.97;18.90;;;;;;;4.08;100.00;97432.47;5046010;28;20080;-57
2022/03/27 01:11:17;;;;;;;36.80;18.02;;;;;;;3.84;100.00;97427.59;5044724;28;20069;-58
2022/03/27 01:13:47;;;;;;;40.17;18.88;;;;;;;3.68;100.00;97427.56;5045311;28;20084;-57
2022/03/27 01:16:30;;;;;;;40.13;19.40;;;;;;;3.96;100.00;97431.34;5044991;28;20072;-58
2022/03/27 01:18:59;;;;;;;35.50;17.52;;;;;;;3.97;100.00;97420.81;5042595;28;20106;-55
2022/03/27 01:21:29;;;;;;;38.03;17.88;;;;;;;3.86;100.00;97420.53;5045214;28;20075;-59
2022/03/27 01:23:58;;;;;;;37.60;17.58;;;;;;;3.85;100.00;97420.59;5046897;28;20068;-59
2022/03/27 01:26:26;;;;;;;39.97;17.60;;;;;;;3.64;100.00;97418.19;5046319;28;20073;-59
2022/03/27 01:28:54;;;;;;;37.28;18.65;;;;;;;3.67;100.00;97412.81;5047707;28;20088;-56
2022/03/27 01:31:24;;;;;;;44.30;18.17;;;;;;;3.49;100.00;97418.97;5044361;28;20513;-58
2022/03/27 01:33:52;;;;;;;39.25;18.48;;;;;;;3.45;100.00;97418.28;5043935;28;20068;-57
2022/03/27 01:36:23;;;;;;;38.63;19.15;;;;;;;3.39;100.00;97413.38;5046706;28;20084;-57
2022/03/27 01:38:54;;;;;;;36.10;17.63;;;;;;;3.47;100.00;97418.19;5059670;28;20085;-60
2022/03/27 01:41:23;;;;;;;39.63;17.88;;;;;;;3.31;100.00;97403.31;5045913;28;20455;-60
2022/03/27 01:43:51;;;;;;;33.58;16.85;;;;;;;2.97;100.00;97404.16;5065295;28;20586;-59
2022/03/27 01:46:20;;;;;;;36.88;18.63;;;;;;;2.84;100.00;97408.25;5048591;28;20057;-58
2022/03/27 01:48:48;;;;;;;43.15;19.05;;;;;;;2.82;100.00;97404.88;5049908;28;20064;-58
2022/03/27 01:51:16;;;;;;;39.28;19.35;;;;;;;2.87;100.00;97397.69;5049660;28;20065;-59
2022/03/27 01:53:44;;;;;;;38.50;18.88;;;;;;;2.76;100.00;97403.41;5044166;28;20491;-56
2022/03/27 01:56:14;;;;;;;38.70;18.65;;;;;;;2.80;100.00;97401.50;5048431;28;20076;-58
2022/03/27 01:58:42;;;;;;;37.60;18.75;;;;;;;2.55;100.00;97404.44;5050475;28;20084;-59
2022/03/27 02:01:11;;;;;;;41.90;18.30;;;;;;;2.72;100.00;97411.44;5047902;28;20523;-57
2022/03/27 02:03:40;;;;;;;36.95;18.88;;;;;;;2.66;100.00;97406.53;5047601;28;20076;-59
2022/03/27 02:06:09;;;;;;;37.88;18.85;;;;;;;2.81;100.00;97404.03;5047654;28;20141;-58
2022/03/27 02:08:37;;;;;;;40.53;19.15;;;;;;;2.46;100.00;97408.31;5046760;28;20075;-56
2022/03/27 02:11:06;;;;;;;42.38;19.48;;;;;;;2.26;100.00;97408.38;5048570;28;20072;-59
2022/03/27 02:13:36;;;;;;;45.78;20.67;;;;;;;2.43;100.00;97408.44;5047413;28;20056;-58
2022/03/27 02:16:05;;;;;;;40.67;19.45;;;;;;;2.27;100.00;97408.31;5047203;28;20423;-59
2022/03/27 02:18:33;;;;;;;40.72;20.25;;;;;;;2.35;100.00;97415.78;5040748;28;20542;-59
2022/03/27 02:21:02;;;;;;;44.60;20.38;;;;;;;2.49;100.00;97408.16;5048349;28;20443;-59
2022/03/27 02:23:31;;;;;;;42.88;20.83;;;;;;;2.72;100.00;97417.50;5047499;28;20120;-59
2022/03/27 02:26:00;;;;;;;46.33;19.58;;;;;;;2.85;100.00;97415.97;5047696;28;20088;-59
2022/03/27 02:28:28;;;;;;;37.30;19.60;;;;;;;3.01;100.00;97413.50;5051579;28;20068;-59
2022/03/27 02:30:58;;;;;;;39.30;19.85;;;;;;;2.94;100.00;97419.91;5048822;28;20080;-59
2022/03/27 02:33:26;;;;;;;37.97;18.67;;;;;;;2.96;100.00;97414.63;5047404;28;20163;-59
2022/03/27 02:35:55;;;;;;;38.67;19.60;;;;;;;2.90;100.00;97410.56;5048877;28;20487;-55
2022/03/27 02:38:23;;;;;;;37.70;18.70;;;;;;;3.13;100.00;97411.19;5047421;28;20056;-58
2022/03/27 02:40:52;;;;;;;40.80;18.35;;;;;;;3.04;100.00;97412.50;5064067;28;20068;-59
2022/03/27 02:43:20;;;;;;;39.88;18.70;;;;;;;2.98;100.00;97412.81;5035670;28;22234;-58
2022/03/27 02:45:50;;;;;;;32.70;17.00;;;;;;;2.91;100.00;97408.81;5049712;28;20569;-57
2022/03/27 02:48:19;;;;;;;37.33;18.35;;;;;;;2.61;100.00;97405.00;5046093;28;20128;-57
2022/03/27 02:50:48;;;;;;;37.13;18.03;;;;;;;2.60;100.00;97402.44;5045579;28;20073;-58
2022/03/27 02:53:16;;;;;;;44.65;18.35;;;;;;;2.59;100.00;97413.78;5045848;28;20065;-58
2022/03/27 02:55:45;;;;;;;36.97;17.95;;;;;;;2.59;100.00;97421.59;5048063;28;20068;-59
2022/03/27 02:58:13;;;;;;;39.80;18.05;;;;;;;2.48;100.00;97411.69;5064464;28;20126;-58
2022/03/27 03:00:42;;;;;;;41.58;18.45;;;;;;;2.38;100.00;97410.44;5046995;28;20080;-59
2022/03/27 03:03:12;;;;;;;38.45;19.02;;;;;;;2.35;100.00;97414.00;5046954;28;20069;-58
2022/03/27 03:05:42;;;;;;;41.13;18.58;;;;;;;2.30;100.00;97412.53;5047890;28;20073;-59
2022/03/27 03:08:12;;;;;;;51.45;20.63;;;;;;;2.22;100.00;97420.69;5047103;28;20060;-59
2022/03/27 03:10:42;;;;;;;43.03;19.77;;;;;;;2.41;100.00;97410.28;5046683;28;20072;-59
2022/03/27 03:13:11;;;;;;;39.83;19.48;;;;;;;2.33;100.00;97417.59;5047244;28;20075;-57
2022/03/27 03:15:41;;;;;;;38.05;19.30;;;;;;;2.20;100.00;97421.66;5047688;28;20079;-58
2022/03/27 03:18:10;;;;;;;39.03;19.50;;;;;;;2.07;100.00;97421.41;5047345;28;20047;-57
2022/03/27 03:20:39;;;;;;;45.85;20.60;;;;;;;1.94;100.00;97415.88;5063604;28;20079;-59
2022/03/27 03:23:10;;;;;;;;;;;;;;;1.83;100.00;97421.56;5047757;28;20467;-59
2022/03/27 03:25:40;;;;;;;43.15;18.95;;;;;;;1.90;100.00;97420.38;5048910;28;19964;-60
2022/03/27 03:28:28;;;;;;;40.63;19.80;;;;;;;1.88;100.00;97419.59;5051916;28;20065;-59
2022/03/27 03:30:56;;;;;;;38.60;18.65;;;;;;;1.93;100.00;97414.19;5046529;28;20651;-56
2022/03/27 03:33:25;;;;;;;37.75;19.40;;;;;;;2.00;100.00;97418.22;5045465;28;20657;-57
2022/03/27 03:35:54;;;;;;;44.25;19.55;;;;;;;2.20;100.00;97422.50;5043622;28;20077;-56
2022/03/27 03:38:23;;;;;;;47.90;19.92;;;;;;;2.14;100.00;97423.66;5045547;28;20118;-59
2022/03/27 03:40:51;;;;;;;42.10;20.02;;;;;;;2.00;100.00;97422.59;5044399;28;20070;-58
2022/03/27 03:43:20;;;;;;;37.83;19.42;;;;;;;2.24;100.00;97423.22;5046365;28;20075;-56
2022/03/27 03:45:49;;;;;;;41.33;19.90;;;;;;;1.90;100.00;97424.75;5047933;28;20064;-58
2022/03/27 03:48:17;;;;;;;42.08;19.33;;;;;;;1.94;100.00;97423.69;5046113;28;20064;-59
2022/03/27 03:50:46;;;;;;;45.83;21.27;;;;;;;1.98;100.00;97416.59;5047303;28;20088;-59
2022/03/27 03:53:14;;;;;;;41.72;21.73;;;;;;;1.68;100.00;97414.41;5045556;28;20534;-59
2022/03/27 03:55:44;;;;;;;41.47;21.00;;;;;;;1.81;100.00;97418.16;5046200;28;20072;-55
2022/03/27 03:58:12;;;;;;;44.35;19.98;;;;;;;1.75;100.00;97415.00;5046911;28;20061;-57
2022/03/27 04:00:42;;;;;;;40.38;21.35;;;;;;;1.81;100.00;97417.31;5043458;28;20545;-58
2022/03/27 04:03:10;;;;;;;42.92;19.70;;;;;;;2.00;100.00;97418.22;5045807;28;20076;-59
2022/03/27 04:05:38;;;;;;;40.00;20.35;;;;;;;1.64;100.00;97423.25;5047200;28;20089;-57
2022/03/27 04:08:07;;;;;;;39.80;20.23;;;;;;;1.74;100.00;97427.16;5046877;28;20079;-59
2022/03/27 04:10:35;;;;;;;45.50;20.33;;;;;;;1.77;100.00;97424.41;5045754;28;20041;-58
2022/03/27 04:13:05;;;;;;;41.58;19.70;;;;;;;1.83;100.00;97418.97;5045985;28;20068;-58
2022/03/27 04:15:34;;;;;;;40.75;19.33;;;;;;;1.33;100.00;97414.16;5045744;28;20037;-58
2022/03/27 04:18:22;;;;;;;44.30;20.08;;;;;;;1.26;100.00;97423.13;5043721;28;20080;-59
2022/03/27 04:20:51;;;;;;;43.92;19.63;;;;;;;1.61;100.00;97415.59;5046985;28;20459;-57
2022/03/27 04:23:20;;;;;;;47.33;21.33;;;;;;;1.68;100.00;97419.59;5045038;28;20449;-59
2022/03/27 04:25:48;;;;;;;42.55;19.77;;;;;;;1.54;100.00;97421.97;5046624;28;20159;-59
2022/03/27 04:28:17;;;;;;;46.85;20.35;;;;;;;1.49;100.00;97419.56;5050186;28;20079;-60
2022/03/27 04:30:46;;;;;;;38.55;19.23;;;;;;;1.46;100.00;97424.91;5044966;28;20072;-59
2022/03/27 04:33:14;;;;;;;48.00;19.73;;;;;;;1.22;100.00;97413.78;5045986;28;20060;-59
2022/03/27 04:35:42;;;;;;;37.60;19.80;;;;;;;1.49;100.00;97413.53;5045712;28;20122;-56
2022/03/27 04:38:11;;;;;;;43.45;20.55;;;;;;;1.49;100.00;97421.31;5044936;28;20064;-58
2022/03/27 04:40:39;;;;;;;47.63;22.10;;;;;;;1.57;100.00;97420.06;5044630;28;20072;-59
2022/03/27 04:43:07;;;;;;;44.00;20.05;;;;;;;1.49;100.00;97424.78;5045563;28;20490;-58
2022/03/27 04:45:37;;;;;;;45.58;22.45;;;;;;;1.57;100.00;97422.69;5046385;28;20475;-58
2022/03/27 04:48:06;;;;;;;46.15;21.60;;;;;;;1.49;100.00;97426.53;5046301;28;20080;-60
2022/03/27 04:50:34;;;;;;;46.42;21.17;;;;;;;1.83;100.00;97431.13;5046033;28;20103;-59
2022/03/27 04:53:02;;;;;;;48.28;21.75;;;;;;;1.75;100.00;97425.41;5046078;28;20064;-59
2022/03/27 04:55:31;;;;;;;42.13;20.42;;;;;;;1.87;100.00;97427.47;5044630;28;20071;-58
2022/03/27 04:57:59;;;;;;;47.50;20.65;;;;;;;1.69;100.00;97433.44;5043460;28;20079;-58
2022/03/27 05:00:28;;;;;;;40.05;20.00;;;;;;;1.86;100.00;97429.22;5041865;28;20065;-59
2022/03/27 05:02:58;;;;;;;42.70;20.88;;;;;;;1.87;100.00;97436.13;5043219;28;20052;-58
2022/03/27 05:05:27;;;;;;;40.78;19.73;;;;;;;1.91;100.00;97431.63;5044481;28;20501;-60
2022/03/27 05:07:56;;;;;;;36.38;19.02;;;;;;;1.89;100.00;97434.31;5046756;28;20073;-55
2022/03/27 05:10:24;;;;;;;36.05;18.63;;;;;;;1.67;100.00;97434.38;5043314;28;20072;-59
2022/03/27 05:12:52;;;;;;;40.58;18.45;;;;;;;1.34;100.00;97430.59;5044761;28;20068;-57
2022/03/27 05:15:21;;;;;;;37.55;18.00;;;;;;;1.29;100.00;97433.38;5044785;28;20064;-59
2022/03/27 05:17:51;;;;;;;37.42;19.45;;;;;;;1.54;100.00;97433.19;5045955;28;20570;-58
2022/03/27 05:20:21;;;;;;;42.67;19.73;;;;;;;1.74;100.00;97424.56;5044354;28;20386;-56
2022/03/27 05:22:50;;;;;;;40.17;19.30;;;;;;;2.17;100.00;97411.38;5046191;28;20076;-59
2022/03/27 05:25:19;;;;;;;46.95;20.17;;;;;;;2.13;100.00;97415.88;5045936;28;20053;-59
2022/03/27 05:27:50;;;;;;;42.92;19.73;;;;;;;2.02;100.00;97421.56;5047575;28;20041;-59
2022/03/27 05:30:19;;;;;;;;;;;;;;;2.40;100.00;97413.78;5045701;28;20515;-58
2022/03/27 05:32:47;;;;;;;44.70;20.65;;;;;;;2.28;100.00;97419.56;5045051;28;20354;-58
2022/03/27 05:35:16;;;;;;;42.35;20.73;;;;;;;2.34;100.00;97416.66;5044694;28;20064;-59
2022/03/27 05:37:47;;;;;;;44.30;20.33;;;;;;;2.31;100.00;97415.06;5045280;28;20415;-59
2022/03/27 05:40:17;;;;;;;41.08;21.02;;;;;;;2.47;100.00;97420.41;5043647;28;20107;-58
2022/03/27 05:42:46;;;;;;;45.53;23.02;;;;;;;1.90;100.00;97432.53;5042240;28;20577;-60
2022/03/27 05:45:14;;;;;;;45.63;21.65;;;;;;;2.23;100.00;97426.72;5044811;28;20530;-60
2022/03/27 05:47:43;;;;;;;44.38;21.55;;;;;;;2.30;100.00;97430.75;5043526;28;20160;-59
2022/03/27 05:50:12;;;;;;;45.35;21.55;;;;;;;2.06;100.00;97443.94;5042998;28;20139;-60
2022/03/27 05:52:42;;;;;;;45.95;21.08;;;;;;;2.19;100.00;97438.19;5041184;28;20503;-58
2022/03/27 05:55:12;;;;;;;40.95;20.92;;;;;;;2.62;100.00;97426.66;5044930;28;20053;-59
2022/03/27 05:57:42;;;;;;;45.53;21.23;;;;;;;2.45;100.00;97435.25;5041866;28;20064;-59
2022/03/27 06:00:12;;;;;;;45.92;21.90;;;;;;;2.76;100.00;97432.06;5044600;28;20085;-59
2022/03/27 06:02:40;;;;;;;44.03;23.75;;;;;;;3.22;100.00;97448.09;5042025;28;20080;-57
2022/03/27 06:05:09;;;;;;;47.08;23.30;;;;;;;3.31;100.00;97450.25;5043389;28;20065;-59
2022/03/27 06:07:45;;;;;;;43.42;22.83;;;;;;;3.11;100.00;97450.38;5043979;28;20064;-58
2022/03/27 06:10:16;;;;;;;44.63;21.75;;;;;;;2.75;100.00;97455.56;5044045;28;20064;-58
2022/03/27 06:12:45;;;;;;;46.13;23.73;;;;;;;3.09;100.00;97458.25;5045193;28;20071;-59
2022/03/27 06:15:14;;;;;;;48.58;24.52;;;;;;;3.54;100.00;97474.31;5043528;28;20069;-58
2022/03/27 06:17:45;;;;;;;52.50;25.83;;;;;;;4.06;100.00;97471.72;5043391;28;20084;-59
2022/03/27 06:20:15;;;;;;;51.78;26.30;;;;;;;4.01;100.00;97463.25;5044495;28;20060;-59
2022/03/27 06:22:44;;;;;;;51.90;25.73;;;;;;;4.44;100.00;97471.44;5047617;28;20069;-59
2022/03/27 06:25:16;;;;;;;50.45;26.45;;;;;;;4.52;100.00;97472.72;5048228;28;20538;-58
2022/03/27 06:27:44;;;;;;;54.72;24.73;;;;;;;4.64;100.00;97472.97;5049680;28;20061;-59
2022/03/27 06:30:16;;;;;;;46.08;24.98;;;;;;;4.85;100.00;97474.44;5048350;28;20465;-58
2022/03/27 06:32:44;;;;;;;50.38;24.75;;;;;;;5.34;100.00;97468.25;5048607;28;20073;-59
2022/03/27 06:35:15;;;;;;;48.53;24.25;;;;;;;5.64;100.00;97468.22;5047780;28;20060;-59
2022/03/27 06:37:44;;;;;;;45.42;23.45;;;;;;;5.58;100.00;97463.38;5044304;28;20045;-59
2022/03/27 06:40:14;;;;;;;50.92;23.67;;;;;;;6.26;100.00;97454.97;5048278;28;20068;-59
2022/03/27 06:42:45;;;;;;;43.38;23.08;;;;;;;6.21;100.00;97451.81;5042798;28;20422;-59
2022/03/27 06:45:14;;;;;;;42.50;22.48;;;;;;;6.21;100.00;97457.88;5047498;28;20541;-59
2022/03/27 06:47:43;;;;;;;38.28;20.73;;;;;;;6.32;100.00;97470.34;5047258;28;20087;-58
2022/03/27 06:50:13;;;;;;;42.03;21.58;;;;;;;6.98;100.00;97447.88;5047251;28;20123;-60
2022/03/27 06:52:41;;;;;;;39.30;21.23;;;;;;;6.62;100.00;97459.75;5047808;28;20068;-57
2022/03/27 06:55:10;;;;;;;42.08;22.30;;;;;;;7.28;100.00;97458.19;5047588;28;20068;-59
2022/03/27 06:57:40;;;;;;;41.47;21.48;;;;;;;7.47;100.00;97450.78;5049370;28;20557;-59
2022/03/27 07:03:02;;;;;;;43.22;21.98;;;;;;;7.98;100.00;97445.63;5046542;28;20107;-60
2022/03/27 07:05:31;;;;;;;44.60;21.13;;;;;;;8.27;100.00;97450.66;5048546;28;20081;-57
2022/03/27 07:08:05;;;;;;;41.38;20.48;;;;;;;8.21;100.00;97451.91;5045905;28;20072;-59
2022/03/27 07:10:34;;;;;;;39.47;19.77;;;;;;;8.35;100.00;97442.25;5047843;28;20060;-58
2022/03/27 07:13:03;;;;;;;35.95;19.42;;;;;;;8.48;97.10;97448.38;5045043;28;20084;-58
2022/03/27 07:15:31;;;;;;;38.45;19.73;;;;;;;8.50;98.84;97443.84;5047907;28;20470;-57
2022/03/27 07:18:00;;;;;;;32.85;18.10;;;;;;;8.36;99.34;97439.50;5043085;28;20463;-60
2022/03/27 07:20:31;;;;;;;34.40;19.88;;;;;;;8.02;100.00;97443.63;5047757;28;20099;-59
2022/03/27 07:23:01;;;;;;;34.40;17.88;;;;;;;8.34;99.08;97441.41;5047532;28;20076;-61
2022/03/27 07:25:32;;;;;;;33.67;17.63;;;;;;;8.77;95.54;97441.03;5046770;28;20060;-59
2022/03/27 07:28:01;;;;;;;31.48;17.55;;;;;;;9.45;89.08;97442.25;5049803;28;20463;-57
2022/03/27 07:30:31;;;;;;;34.53;18.15;;;;;;;9.38;88.36;97441.88;5046155;28;20061;-59
2022/03/27 07:32:59;;;;;;;33.08;17.60;;;;;;;9.59;87.72;97441.25;5046076;28;20077;-59
2022/03/27 07:35:30;;;;;;;37.10;18.15;;;;;;;9.39;87.01;97447.97;5046086;28;20173;-59
2022/03/27 07:37:59;;;;;;;34.58;16.83;;;;;;;9.41;84.40;97440.81;5044286;28;20069;-60
2022/03/27 07:40:28;;;;;;;29.52;15.95;;;;;;;9.93;81.35;97439.53;5046231;28;20056;-59
2022/03/27 07:42:57;;;;;;;32.70;17.00;;;;;;;10.36;76.73;97438.94;5046993;28;20073;-59
2022/03/27 07:45:27;;;;;;;32.60;17.50;;;;;;;10.34;74.78;97433.75;5045878;28;20065;-59
2022/03/27 07:47:57;;;;;;;32.80;17.42;;;;;;;10.67;71.09;97437.38;5047227;28;20085;-60
2022/03/27 07:50:27;;;;;;;32.40;17.40;;;;;;;10.63;70.84;97441.19;5047267;28;20068;-60
2022/03/27 07:52:55;;;;;;;31.88;17.10;;;;;;;11.17;68.49;97428.00;5046395;28;20068;-58
2022/03/27 07:55:24;;;;;;;31.98;18.48;;;;;;;11.36;65.97;97431.81;5046270;28;20076;-60
2022/03/27 07:57:55;;;;;;;29.35;17.10;;;;;;;10.87;65.46;97433.13;5046443;28;20064;-60
2022/03/27 08:00:24;;;;;;;32.75;18.33;;;;;;;11.41;64.45;97432.25;5044737;28;20461;-60
2022/03/27 08:02:52;;;;;;;32.55;17.02;;;;;;;11.04;66.04;97423.84;5046633;28;20095;-60
2022/03/27 08:05:22;;;;;;;35.28;17.25;;;;;;;11.25;58.21;97424.78;5043815;28;20582;-60
2022/03/27 08:07:51;;;;;;;34.23;18.30;;;;;;;12.12;57.51;97424.63;5045416;28;20472;-60
2022/03/27 08:10:19;;;;;;;35.05;18.10;;;;;;;11.95;58.99;97418.13;5045731;28;20057;-60
2022/03/27 08:12:48;;;;;;;36.17;18.13;;;;;;;11.48;60.49;97424.69;5046076;28;20466;-60
2022/03/27 08:15:18;;;;;;;36.50;18.15;;;;;;;12.28;59.07;97426.78;5045629;28;20064;-61
2022/03/27 08:17:53;;;;;;;36.72;18.55;;;;;;;11.82;58.41;97420.91;5044476;28;20080;-60
2022/03/27 08:20:24;;;;;;;34.90;18.67;;;;;;;11.81;62.18;97431.63;5043898;28;20064;-61
2022/03/27 08:22:53;;;;;;;35.95;18.83;;;;;;;12.22;62.73;97429.97;5044678;28;20076;-59
2022/03/27 08:28:08;;;;;;;34.75;19.65;;;;;;;12.13;60.24;97430.75;5046508;28;20063;-59
2022/03/27 08:30:37;;;;;;;30.45;18.38;;;;;;;12.19;62.53;97430.22;5045873;28;20064;-60
2022/03/27 08:33:05;;;;;;;30.65;17.88;;;;;;;12.37;59.45;97426.00;5045399;28;20076;-60
2022/03/27 08:35:35;;;;;;;32.15;18.60;;;;;;;12.47;59.83;97426.03;5047063;28;20057;-58
2022/03/27 08:38:03;;;;;;;35.50;18.48;;;;;;;12.52;58.05;97429.94;5045779;28;20071;-58
2022/03/27 08:40:32;;;;;;;38.30;18.73;;;;;;;12.79;58.18;97423.22;5043944;28;20065;-60
2022/03/27 08:43:01;;;;;;;34.47;20.25;;;;;;;13.33;57.50;97427.28;5044123;28;20095;-59
2022/03/27 08:45:29;;;;;;;39.08;20.50;;;;;;;13.23;56.10;97423.75;5045432;28;20270;-60
2022/03/27 08:47:57;;;;;;;32.88;19.63;;;;;;;13.20;56.27;97435.44;5045280;28;20079;-60
2022/03/27 08:50:30;;;;;;;32.08;18.27;;;;;;;13.02;57.62;97432.63;5045265;28;20438;-60
2022/03/27 08:53:02;;;;;;;34.08;20.55;;;;;;;13.15;56.65;97423.59;5045189;28;20076;-59
2022/03/27 08:55:39;;;;;;;35.40;19.38;;;;;;;13.14;57.74;97428.03;5044762;28;20069;-60
2022/03/27 08:58:08;;;;;;;31.73;19.08;;;;;;;13.91;55.64;97431.75;5049453;28;20431;-60
2022/03/27 09:00:38;;;;;;;34.15;19.58;;;;;;;13.77;55.42;97425.06;5041699;28;20079;-59
2022/03/27 09:03:07;;;;;;;35.13;20.25;;;;;;;13.97;54.93;97424.06;5045245;28;20473;-60
2022/03/27 09:05:36;;;;;;;33.88;19.13;;;;;;;14.10;54.39;97433.50;5045983;28;20444;-61
2022/03/27 09:08:09;;;;;;;29.90;18.15;;;;;;;14.25;54.84;97426.78;5043208;28;20068;-60
2022/03/27 09:10:39;;;;;;;32.63;18.63;;;;;;;14.17;53.58;97431.97;5047294;28;20076;-60
2022/03/27 09:13:11;;;;;;;32.75;18.33;;;;;;;14.27;53.15;97426.63;5049283;28;20084;-61
2022/03/27 09:15:39;;;;;;;31.77;18.00;;;;;;;14.56;52.75;97422.13;5045022;28;20067;-60
2022/03/27 09:18:08;;;;;;;36.10;19.10;;;;;;;14.60;52.05;97420.84;5048552;28;20124;-60
2022/03/27 09:20:44;;;;;;;32.60;18.87;;;;;;;14.72;51.01;97422.31;5048898;28;20068;-60
2022/03/27 09:23:19;;;;;;;30.75;18.10;;;;;;;14.56;50.56;97418.63;5045963;28;20072;-61
2022/03/27 09:25:50;;;;;;;37.03;19.05;;;;;;;14.46;50.73;97430.06;5045793;28;20068;-61
2022/03/27 09:28:32;;;;;;;29.38;18.73;;;;;;;14.92;50.52;97419.56;5048790;28;20448;-61
2022/03/27 09:31:03;;;;;;;30.52;17.20;;;;;;;14.70;50.01;97412.84;5042883;28;20076;-61
2022/03/27 09:33:46;;;;;;;30.20;17.90;;;;;;;15.24;48.02;97413.75;5048074;28;20073;-61
2022/03/27 09:36:17;;;;;;;35.88;21.75;;;;;;;15.30;47.13;97409.69;5046710;28;20080;-61
2022/03/27 09:39:07;;;;;;;30.63;16.98;;;;;;;15.57;46.35;97420.25;5044853;28;20077;-61
2022/03/27 09:41:45;;;;;;;33.35;18.02;;;;;;;15.83;44.62;97409.72;5045003;28;20464;-60
2022/03/27 09:44:15;;;;;;;33.95;18.42;;;;;;;15.70;42.98;97408.44;5041993;28;20522;-62
2022/03/27 09:47:02;;;;;;;38.05;18.75;;;;;;;16.16;42.32;97414.41;5045743;28;20076;-60
2022/03/27 09:49:41;;;;;;;32.85;19.27;;;;;;;15.93;41.36;97409.59;5044653;28;20061;-61
2022/03/27 09:52:11;;;;;;;30.13;17.38;;;;;;;16.21;41.65;97410.31;5058445;28;20069;-61
2022/03/27 09:54:48;;;;;;;31.73;16.98;;;;;;;16.10;41.34;97413.22;5042209;28;20518;-61
2022/03/27 09:57:18;;;;;;;34.72;18.23;;;;;;;16.07;41.18;97406.41;5041266;28;20453;-61
2022/03/27 09:59:47;;;;;;;30.20;17.77;;;;;;;16.06;40.54;97403.88;5052063;28;20064;-61
2022/03/27 10:02:25;;;;;;;27.95;17.65;;;;;;;16.53;40.25;97409.66;5046984;28;20108;-61
2022/03/27 10:04:56;;;;;;;30.25;18.08;;;;;;;16.48;40.23;97408.44;5046509;28;20068;-60
2022/03/27 10:07:26;;;;;;;28.60;15.55;;;;;;;16.46;39.84;97410.44;5048213;28;20072;-61
2022/03/27 10:09:56;;;;;;;31.25;17.17;;;;;;;16.38;39.89;97404.09;5049067;28;20072;-60
2022/03/27 10:12:27;;;;;;;;;;;;;;;16.84;39.91;97401.16;5045643;28;20491;-60
2022/03/27 10:15:00;;;;;;;33.28;17.40;;;;;;;16.65;38.97;97399.53;5051682;28;19968;-59
2022/03/27 10:17:29;;;;;;;30.40;17.27;;;;;;;16.91;38.79;97394.19;5049189;28;20072;-58
2022/03/27 10:20:01;;;;;;;34.15;18.95;;;;;;;17.16;38.77;97394.28;5048030;28;20056;-60
2022/03/27 10:22:30;;;;;;;29.92;17.75;;;;;;;17.02;38.74;97391.22;5048874;28;20064;-61
2022/03/27 10:25:03;;;;;;;35.40;18.58;;;;;;;17.06;38.19;97383.75;5046979;28;20511;-60
2022/03/27 10:27:32;;;;;;;31.80;19.20;;;;;;;17.28;37.74;97383.13;5046107;28;20072;-60
2022/03/27 10:30:01;;;;;;;29.55;17.67;;;;;;;17.14;38.05;97377.63;5045561;28;20719;-60
2022/03/27 10:32:30;;;;;;;31.40;18.30;;;;;;;17.46;37.96;97390.16;5046747;28;20083;-60
2022/03/27 10:35:23;;;;;;;30.67;18.63;;;;;;;17.12;37.21;97380.44;5046941;28;20072;-58
2022/03/27 10:37:59;;;;;;;32.08;18.42;;;;;;;17.48;38.19;97375.69;5042005;28;20496;-61
2022/03/27 10:40:33;;;;;;;31.50;16.95;;;;;;;17.32;37.51;97373.81;5046039;28;20068;-55
2022/03/27 10:43:05;;;;;;;32.28;19.33;;;;;;;17.25;37.90;97378.13;5048599;28;20072;-58
2022/03/27 10:45:35;;;;;;;32.08;16.90;;;;;;;17.35;37.60;97371.81;5046077;28;20538;-59
2022/03/27 10:48:14;;;;;;;33.40;19.63;;;;;;;17.18;38.43;97363.78;5048040;28;20092;-60
2022/03/27 10:50:50;;;;;;;33.33;19.48;;;;;;;17.72;38.29;97356.19;5046166;28;20072;-60
2022/03/27 10:53:20;;;;;;;34.10;18.52;;;;;;;17.66;37.31;97372.00;5046826;28;20072;-58
2022/03/27 10:55:51;;;;;;;35.78;19.40;;;;;;;17.52;37.48;97361.00;5047068;28;20064;-60
2022/03/27 10:58:37;;;;;;;30.25;17.15;;;;;;;17.88;37.49;97365.19;5047059;28;20060;-58
2022/03/27 11:01:08;;;;;;;33.30;19.05;;;;;;;17.78;38.39;97360.84;5047489;28;20065;-60
2022/03/27 11:03:52;;;;;;;37.40;19.13;;;;;;;18.05;37.91;97355.31;5045702;28;20068;-60
2022/03/27 11:06:25;;;;;;;34.60;19.88;;;;;;;18.13;37.40;97366.81;5047360;28;20056;-59
2022/03/27 11:08:54;;;;;;;34.13;19.58;;;;;;;18.04;37.10;97349.16;5046647;28;20108;-58
2022/03/27 11:11:53;;;;;;;31.55;17.88;;;;;;;18.53;37.13;97345.53;5044306;28;20480;-60
2022/03/27 11:14:54;;;;;;;33.10;18.83;;;;;;;17.87;37.60;97355.53;5043850;28;20392;-60
2022/03/27 11:17:45;;;;;;;30.98;19.55;;;;;;;18.49;37.39;97345.88;5044456;28;21644;-60
2022/03/27 11:20:51;;;;;;;36.03;18.73;;;;;;;18.24;36.01;97347.78;5044993;28;20491;-56
2022/03/27 11:23:27;;;;;;;29.23;17.55;;;;;;;17.75;35.98;97352.31;5046227;28;20483;-61
2022/03/27 11:25:56;;;;;;;32.40;17.95;;;;;;;17.88;36.67;97347.34;5048583;28;20693;-58
2022/03/27 11:28:26;;;;;;;29.25;15.85;;;;;;;18.21;34.62;97340.13;5044372;28;20076;-60
2022/03/27 11:31:18;;;;;;;34.80;18.23;;;;;;;18.49;34.39;97342.38;5046844;28;20079;-58
2022/03/27 11:34:26;;;;;;;36.10;16.85;;;;;;;18.47;35.25;97331.84;5047334;28;20068;-60
2022/03/27 11:37:14;;;;;;;34.13;17.38;;;;;;;18.28;35.40;97326.91;5044432;28;20079;-60
2022/03/27 11:39:42;;;;;;;32.25;17.15;;;;;;;18.26;34.58;97328.91;5044214;28;20605;-59
2022/03/27 11:42:34;;;;;;;29.83;16.13;;;;;;;18.83;34.39;97323.38;5046461;28;20084;-60
2022/03/27 11:45:34;;;;;;;28.15;16.85;;;;;;;18.54;34.29;97315.13;5043313;28;20080;-60
2022/03/27 11:48:02;;;;;;;26.45;15.65;;;;;;;18.63;33.74;97314.09;5034654;28;20088;-60